Time;durP1;ratioP1;P1;durP2;ratioP2;P2;SDS_P1;SDS_P2;PMS_P1;PMS_P2;Temp;Humidity;BMP_temperature;BMP_pressure;BME280_temperature;BME280_humidity;BME280_pressure;Samples;Min_cycle;Max_cycle;Signal;HPM_P1;HPM_P2
2020/12/07 00:00:10;;;;;;;65.60;30.77;;;4.90;99.90;;;;;;5033666;28;20451;-86
2020/12/07 00:02:36;;;;;;;41.70;24.97;;;4.90;99.90;;;;;;5034197;28;20453;-88
2020/12/07 00:05:07;;;;;;;43.13;26.37;;;4.80;99.90;;;;;;5036272;28;20448;-86
2020/12/07 00:07:34;;;;;;;44.33;26.00;;;4.90;99.90;;;;;;5027853;28;20523;-88
2020/12/07 00:10:05;;;;;;;45.70;26.83;;;4.90;99.90;;;;;;5035852;28;20456;-86
2020/12/07 00:12:31;;;;;;;48.27;28.90;;;4.80;99.90;;;;;;5036399;28;20533;-86
2020/12/07 00:15:05;;;;;;;42.60;25.43;;;4.80;99.90;;;;;;5037215;28;20452;-86
2020/12/07 00:17:31;;;;;;;40.63;24.93;;;4.80;99.90;;;;;;5036379;28;20438;-87
2020/12/07 00:20:01;;;;;;;39.30;25.20;;;4.90;99.90;;;;;;5036858;28;20509;-87
2020/12/07 00:22:29;;;;;;;42.93;25.40;;;4.90;99.90;;;;;;5046007;28;20483;-88
2020/12/07 00:24:59;;;;;;;50.10;25.60;;;4.80;99.90;;;;;;5056478;28;20451;-89
2020/12/07 00:27:27;;;;;;;48.70;27.80;;;4.80;99.90;;;;;;5054833;28;20439;-91
2020/12/07 00:29:55;;;;;;;46.53;27.47;;;4.70;99.90;;;;;;5056574;28;20453;-90
2020/12/07 00:32:25;;;;;;;42.33;25.40;;;4.70;99.90;;;;;;5055855;28;20504;-90
2020/12/07 00:34:55;;;;;;;61.00;32.77;;;4.80;99.90;;;;;;5056968;28;20438;-90
2020/12/07 00:37:28;;;;;;;39.07;23.30;;;4.80;99.90;;;;;;5055907;28;20890;-89
2020/12/07 00:39:58;;;;;;;44.03;26.60;;;4.80;99.90;;;;;;5050766;28;20506;-89
2020/12/07 00:42:25;;;;;;;40.37;25.93;;;4.70;99.90;;;;;;5055682;28;20448;-93
2020/12/07 00:44:52;;;;;;;39.20;25.57;;;4.80;99.90;;;;;;5057951;28;20509;-90
2020/12/07 00:47:18;;;;;;;38.40;23.83;;;4.90;99.90;;;;;;5056422;28;20463;-90
2020/12/07 00:49:46;;;;;;;39.00;23.17;;;4.80;99.90;;;;;;5049557;28;21047;-90
2020/12/07 00:52:14;;;;;;;35.73;23.53;;;4.90;99.90;;;;;;5062266;28;20584;-90
2020/12/07 00:55:25;;;;;;;42.13;25.63;;;4.90;99.90;;;;;;5059606;28;20502;-91
2020/12/07 00:57:52;;;;;;;32.23;20.47;;;4.90;99.90;;;;;;5038272;28;20459;-92
2020/12/07 01:00:22;;;;;;;45.90;27.13;;;4.90;99.90;;;;;;5036379;28;20994;-92
2020/12/07 01:02:48;;;;;;;38.10;23.00;;;4.80;99.90;;;;;;5035828;28;20438;-91
2020/12/07 01:05:16;;;;;;;51.33;26.23;;;4.80;99.90;;;;;;5036111;28;20441;-92
2020/12/07 01:07:42;;;;;;;34.60;22.03;;;4.70;99.90;;;;;;5035648;28;20455;-92
2020/12/07 01:10:09;;;;;;;34.30;20.77;;;4.70;99.90;;;;;;5052569;28;20432;-92
2020/12/07 01:12:37;;;;;;;33.50;21.43;;;4.80;99.90;;;;;;5055174;28;20481;-91
2020/12/07 01:15:04;;;;;;;31.90;21.53;;;4.80;99.90;;;;;;5055337;28;20450;-91
2020/12/07 01:17:31;;;;;;;31.33;19.90;;;4.80;99.90;;;;;;5054764;28;20442;-92
2020/12/07 01:19:57;;;;;;;30.40;19.30;;;4.80;99.90;;;;;;5055620;28;20816;-92
2020/12/07 01:22:30;;;;;;;29.23;20.43;;;4.90;99.90;;;;;;5055379;28;20491;-92
2020/12/07 01:24:58;;;;;;;29.40;19.47;;;4.90;99.90;;;;;;5055820;28;20819;-92
2020/12/07 01:27:25;;;;;;;33.60;21.73;;;5.00;99.90;;;;;;5055281;28;20938;-92
2020/12/07 01:29:54;;;;;;;26.00;18.50;;;5.00;99.90;;;;;;5055793;28;20470;-92
2020/12/07 01:32:23;;;;;;;26.93;18.90;;;5.00;99.90;;;;;;5055102;28;20446;-92
2020/12/07 01:34:50;;;;;;;25.80;17.60;;;5.00;99.90;;;;;;5054861;28;20520;-92
2020/12/07 01:37:19;;;;;;;38.03;21.77;;;5.00;99.90;;;;;;5055403;28;20461;-93
2020/12/07 01:39:47;;;;;;;28.80;20.10;;;4.90;99.90;;;;;;5045999;28;20900;-91
2020/12/07 01:42:13;;;;;;;30.37;18.77;;;4.90;99.90;;;;;;5034704;28;20474;-92
2020/12/07 01:44:40;;;;;;;37.80;26.10;;;4.90;99.90;;;;;;5033701;28;20441;-92
2020/12/07 01:47:19;;;;;;;26.33;19.87;;;5.00;99.90;;;;;;5039807;28;20454;-92
2020/12/07 01:49:47;;;;;;;39.13;23.23;;;5.00;99.90;;;;;;5041578;28;20497;-92
2020/12/07 01:52:13;;;;;;;33.23;19.53;;;5.00;99.90;;;;;;5034785;28;20680;-92
2020/12/07 01:54:40;;;;;;;21.80;14.07;;;5.00;99.90;;;;;;5034384;28;20499;-92
2020/12/07 01:57:08;;;;;;;22.67;15.50;;;5.00;99.90;;;;;;5035365;28;20476;-92
2020/12/07 01:59:34;;;;;;;16.33;12.80;;;5.10;99.90;;;;;;5034461;28;20450;-92
2020/12/07 02:02:01;;;;;;;20.83;14.97;;;5.10;99.90;;;;;;5035060;28;20447;-92
2020/12/07 02:04:31;;;;;;;20.23;13.67;;;5.10;99.90;;;;;;5052334;28;20532;-92
2020/12/07 02:07:00;;;;;;;23.47;17.50;;;5.10;99.90;;;;;;5054823;28;20510;-92
2020/12/07 02:09:27;;;;;;;19.30;14.20;;;5.10;99.90;;;;;;5053587;28;20518;-92
2020/12/07 02:11:53;;;;;;;20.93;15.10;;;5.10;99.90;;;;;;5053696;28;21044;-92
2020/12/07 02:14:21;;;;;;;25.80;17.60;;;5.10;99.90;;;;;;5054953;28;20485;-92
2020/12/07 02:16:47;;;;;;;21.93;16.30;;;5.10;99.90;;;;;;5054415;28;20487;-92
2020/12/07 02:19:14;;;;;;;21.70;16.00;;;5.00;99.90;;;;;;5052055;28;20447;-92
2020/12/07 02:21:41;;;;;;;24.53;17.37;;;5.00;99.90;;;;;;5034903;28;20448;-92
2020/12/07 02:24:08;;;;;;;19.20;15.30;;;5.10;99.90;;;;;;5033941;28;20480;-93
2020/12/07 02:26:35;;;;;;;21.23;16.77;;;5.10;99.90;;;;;;5034023;28;20448;-92
2020/12/07 02:29:03;;;;;;;24.93;18.40;;;5.10;99.90;;;;;;5034488;28;20452;-92
2020/12/07 02:31:30;;;;;;;23.50;17.13;;;5.20;99.90;;;;;;5035673;28;20443;-92
2020/12/07 02:33:56;;;;;;;22.80;18.07;;;5.20;99.90;;;;;;5033460;28;20484;-92
2020/12/07 02:36:23;;;;;;;26.93;21.23;;;5.20;99.90;;;;;;5034051;28;20448;-91
2020/12/07 02:38:50;;;;;;;25.00;17.70;;;5.10;99.90;;;;;;5033461;28;20819;-92
2020/12/07 02:41:17;;;;;;;28.47;20.77;;;5.20;99.90;;;;;;5034290;28;20808;-92
2020/12/07 02:43:43;;;;;;;28.10;21.40;;;5.20;99.90;;;;;;5033974;28;20762;-92
2020/12/07 02:46:09;;;;;;;26.17;20.00;;;5.20;99.90;;;;;;5033882;28;20448;-91
2020/12/07 02:48:36;;;;;;;30.27;20.20;;;5.20;99.90;;;;;;5033975;28;20446;-91
2020/12/07 02:51:02;;;;;;;31.97;22.37;;;5.20;99.90;;;;;;5034683;28;20453;-91
2020/12/07 02:53:29;;;;;;;28.87;19.63;;;5.20;99.90;;;;;;5034552;28;20488;-92
2020/12/07 02:55:56;;;;;;;32.20;22.37;;;5.20;99.90;;;;;;5034649;28;20551;-91
2020/12/07 02:58:23;;;;;;;26.30;19.40;;;5.20;99.90;;;;;;5039492;28;20447;-91
2020/12/07 03:00:49;;;;;;;23.67;18.80;;;5.20;99.90;;;;;;5053340;28;20512;-91
2020/12/07 03:03:16;;;;;;;28.10;19.30;;;5.30;99.90;;;;;;5054482;28;20814;-91
2020/12/07 03:05:42;;;;;;;29.10;20.80;;;5.30;99.90;;;;;;5053480;28;20505;-91
2020/12/07 03:08:09;;;;;;;31.97;23.20;;;5.30;99.90;;;;;;5053877;28;20475;-90
2020/12/07 03:10:36;;;;;;;37.27;24.50;;;5.30;99.90;;;;;;5037897;28;20459;-91
2020/12/07 03:13:03;;;;;;;29.77;21.87;;;5.30;99.90;;;;;;5040124;28;20965;-92
2020/12/07 03:15:30;;;;;;;29.93;21.83;;;5.20;99.90;;;;;;5034418;28;20486;-92
2020/12/07 03:17:56;;;;;;;37.33;23.43;;;5.20;99.90;;;;;;5034960;28;20455;-91
2020/12/07 03:20:23;;;;;;;37.33;24.37;;;5.20;99.90;;;;;;5033971;28;20524;-91
2020/12/07 03:22:49;;;;;;;35.67;24.07;;;5.20;99.90;;;;;;5033461;28;20479;-90
2020/12/07 03:25:16;;;;;;;31.70;21.10;;;5.10;99.90;;;;;;5044329;28;20466;-90
2020/12/07 03:27:42;;;;;;;28.70;22.13;;;5.20;99.90;;;;;;5033491;28;20839;-89
2020/12/07 03:30:10;;;;;;;32.47;22.20;;;5.20;99.90;;;;;;5033914;28;20451;-89
2020/12/07 03:32:36;;;;;;;34.87;24.90;;;5.20;99.90;;;;;;5033310;28;20816;-90
2020/12/07 03:35:03;;;;;;;31.80;22.43;;;5.10;99.90;;;;;;5034250;28;20452;-90
2020/12/07 03:37:33;;;;;;;34.50;23.70;;;5.20;99.90;;;;;;5033901;28;20459;-90
2020/12/07 03:40:00;;;;;;;28.60;21.40;;;5.10;99.90;;;;;;5034396;28;20463;-89
2020/12/07 03:42:26;;;;;;;31.80;24.57;;;5.10;99.90;;;;;;5034037;28;20496;-89
2020/12/07 03:44:53;;;;;;;32.60;23.20;;;5.00;99.90;;;;;;5032923;28;20825;-90
2020/12/07 03:47:20;;;;;;;32.47;23.73;;;5.00;99.90;;;;;;5033536;28;20448;-89
2020/12/07 03:49:48;;;;;;;39.83;26.67;;;5.10;99.90;;;;;;5032997;28;20836;-90
2020/12/07 03:52:15;;;;;;;37.97;24.10;;;5.10;99.90;;;;;;5033738;28;20453;-92
2020/12/07 03:54:41;;;;;;;29.63;21.80;;;5.00;99.90;;;;;;5034587;28;20474;-90
2020/12/07 03:57:08;;;;;;;30.63;21.93;;;5.10;99.90;;;;;;5035847;28;20484;-90
2020/12/07 03:59:34;;;;;;;32.40;21.97;;;5.10;99.90;;;;;;5042635;28;20826;-90
2020/12/07 04:02:02;;;;;;;29.60;22.87;;;5.10;99.90;;;;;;5034134;28;20457;-90
2020/12/07 04:04:38;;;;;;;39.97;26.93;;;5.10;99.90;;;;;;5040926;28;20907;-90
2020/12/07 04:07:04;;;;;;;33.63;24.13;;;5.10;99.90;;;;;;5072195;28;20796;-90
2020/12/07 04:09:34;;;;;;;30.37;23.10;;;5.10;99.90;;;;;;5058189;28;20803;-90
2020/12/07 04:12:00;;;;;;;28.77;22.20;;;5.10;99.90;;;;;;5058264;28;20508;-91
2020/12/07 04:14:27;;;;;;;33.70;24.13;;;5.10;99.90;;;;;;5057599;28;20483;-89
2020/12/07 04:16:53;;;;;;;34.43;25.50;;;5.00;99.90;;;;;;5054785;28;20462;-89
2020/12/07 04:19:20;;;;;;;34.97;25.83;;;5.00;99.90;;;;;;5057048;28;20451;-90
2020/12/07 04:21:47;;;;;;;38.20;26.70;;;4.90;99.90;;;;;;5056043;28;20455;-89
2020/12/07 04:24:14;;;;;;;38.70;28.20;;;4.90;99.90;;;;;;5057469;28;20525;-90
2020/12/07 04:26:40;;;;;;;47.77;29.60;;;5.00;99.90;;;;;;5057562;28;20503;-92
2020/12/07 04:29:07;;;;;;;36.97;27.20;;;4.90;99.90;;;;;;5057293;28;20475;-89
2020/12/07 04:31:33;;;;;;;41.83;28.37;;;5.00;99.90;;;;;;5056514;28;20455;-89
2020/12/07 04:34:00;;;;;;;38.23;25.30;;;5.00;99.90;;;;;;5057025;28;20479;-89
2020/12/07 04:36:27;;;;;;;36.00;26.90;;;4.90;99.90;;;;;;5057148;28;20452;-89
2020/12/07 04:38:54;;;;;;;36.13;25.90;;;4.90;99.90;;;;;;5057693;28;20557;-89
2020/12/07 04:41:21;;;;;;;38.33;26.37;;;4.90;99.90;;;;;;5057158;28;20431;-89
2020/12/07 04:43:49;;;;;;;40.23;27.70;;;4.90;99.90;;;;;;5057290;28;20515;-89
2020/12/07 04:46:15;;;;;;;43.83;29.23;;;4.90;99.90;;;;;;5057071;28;20814;-87
2020/12/07 04:48:45;;;;;;;38.63;25.77;;;4.80;99.90;;;;;;5056350;28;20444;-89
2020/12/07 04:51:13;;;;;;;37.97;25.60;;;4.90;99.90;;;;;;5057030;28;20476;-89
2020/12/07 04:53:41;;;;;;;45.60;30.47;;;4.90;99.90;;;;;;5056342;28;20483;-89
2020/12/07 04:56:08;;;;;;;34.57;23.30;;;4.90;99.90;;;;;;5056375;28;20435;-89
2020/12/07 05:02:01;;;;;;;29.90;21.27;;;4.90;99.90;;;;;;5056142;28;20411;-90
2020/12/07 05:04:28;;;;;;;42.90;26.20;;;4.90;99.90;;;;;;5055206;28;20492;-88
2020/12/07 05:06:59;;;;;;;36.03;24.00;;;4.80;99.90;;;;;;5046020;28;20461;-91
2020/12/07 05:09:27;;;;;;;35.50;23.87;;;4.80;99.90;;;;;;5056732;28;20474;-91
2020/12/07 05:11:55;;;;;;;33.77;22.90;;;4.80;99.90;;;;;;5057451;28;20440;-91
2020/12/07 05:15:09;;;;;;;28.20;21.07;;;4.80;99.90;;;;;;5056562;28;20471;-92
2020/12/07 05:21:03;;;;;;;27.47;19.23;;;4.80;99.90;;;;;;5056779;28;20900;-92
2020/12/07 05:38:43;;;;;;;35.77;22.97;;;4.60;99.90;;;;;;5036886;28;20425;-92
2020/12/07 05:41:29;;;;;;;29.90;21.77;;;4.50;99.90;;;;;;5036594;28;20890;-90
2020/12/07 05:43:57;;;;;;;36.77;25.30;;;4.50;99.90;;;;;;5035860;28;20505;-90
2020/12/07 05:46:27;;;;;;;29.70;21.13;;;4.50;99.90;;;;;;5035979;28;20442;-91
2020/12/07 05:48:54;;;;;;;31.77;22.43;;;4.50;99.90;;;;;;5035161;28;20523;-91
2020/12/07 05:51:24;;;;;;;31.10;26.02;;;4.60;99.90;;;;;;5034388;28;20437;-89
2020/12/07 05:53:52;;;;;;;34.57;25.10;;;4.60;99.90;;;;;;5028259;28;20608;-90
2020/12/07 05:56:19;;;;;;;31.83;23.33;;;4.60;99.90;;;;;;5015358;28;20592;-89
2020/12/07 05:58:57;;;;;;;34.33;23.30;;;4.60;99.90;;;;;;5014872;28;20486;-90
2020/12/07 06:01:26;;;;;;;39.33;25.97;;;4.60;99.90;;;;;;5024202;28;20441;-87
2020/12/07 06:03:53;;;;;;;33.83;24.00;;;4.60;99.90;;;;;;5033560;28;20878;-90
2020/12/07 06:06:31;;;;;;;34.57;25.03;;;4.70;99.90;;;;;;5024131;28;20446;-89
2020/12/07 06:09:01;;;;;;;44.57;28.53;;;4.70;99.90;;;;;;5020537;28;20445;-89
2020/12/07 06:11:29;;;;;;;30.23;22.90;;;4.60;99.90;;;;;;5035521;28;20438;-89
2020/12/07 06:13:56;;;;;;;35.00;24.43;;;4.70;99.90;;;;;;5030936;28;20565;-90
2020/12/07 06:16:27;;;;;;;37.37;26.07;;;4.70;99.90;;;;;;5035800;28;20446;-89
2020/12/07 06:18:56;;;;;;;36.43;25.90;;;4.70;99.90;;;;;;5034561;28;20454;-88
2020/12/07 06:21:23;;;;;;;35.30;25.93;;;4.70;99.90;;;;;;5026044;28;20475;-91
2020/12/07 06:23:50;;;;;;;32.90;24.80;;;4.70;99.90;;;;;;5031548;28;20452;-89
2020/12/07 06:26:19;;;;;;;33.97;24.33;;;4.70;99.90;;;;;;5024804;28;20534;-88
2020/12/07 06:28:47;;;;;;;39.83;26.73;;;4.70;99.90;;;;;;5024921;28;20442;-89
2020/12/07 06:31:15;;;;;;;35.40;25.63;;;4.70;99.90;;;;;;5021020;28;20449;-89
2020/12/07 06:33:44;;;;;;;38.90;27.60;;;4.60;99.90;;;;;;5014566;28;20557;-88
2020/12/07 06:36:38;;;;;;;38.53;27.33;;;4.60;99.90;;;;;;5031814;28;20503;-86
2020/12/07 06:39:08;;;;;;;39.97;28.03;;;4.60;99.90;;;;;;4969746;28;20490;-88
2020/12/07 06:41:37;;;;;;;36.30;26.23;;;4.60;99.90;;;;;;5014723;28;20522;-91
2020/12/07 06:44:08;;;;;;;31.93;25.07;;;4.60;99.90;;;;;;5011739;28;20452;-91
2020/12/07 06:46:49;;;;;;;36.73;25.80;;;4.60;99.90;;;;;;5019747;28;20561;-93
2020/12/07 06:49:16;;;;;;;36.70;26.30;;;4.70;99.90;;;;;;5026140;28;20497;-88
2020/12/07 06:51:47;;;;;;;35.40;25.03;;;4.70;99.90;;;;;;5032307;28;20483;-91
2020/12/07 06:57:21;;;;;;;42.50;31.10;;;4.60;99.90;;;;;;5015966;28;20462;-88
2020/12/07 07:00:00;;;;;;;36.00;26.63;;;4.60;99.90;;;;;;5010267;28;20454;-88
2020/12/07 07:03:06;;;;;;;40.03;27.47;;;4.60;99.90;;;;;;5000315;28;20453;-87
2020/12/07 07:05:32;;;;;;;37.90;25.90;;;4.70;99.90;;;;;;5006865;28;20447;-85
2020/12/07 07:07:59;;;;;;;41.60;28.90;;;4.80;99.90;;;;;;5034102;28;20479;-89
2020/12/07 07:10:25;;;;;;;37.80;27.63;;;4.70;99.90;;;;;;5034728;28;20835;-89
2020/12/07 07:12:53;;;;;;;41.50;29.80;;;4.70;99.90;;;;;;5022758;28;20468;-89
2020/12/07 07:15:19;;;;;;;38.03;28.50;;;4.70;99.90;;;;;;5014853;28;20543;-88
2020/12/07 07:17:54;;;;;;;39.57;27.13;;;4.70;99.90;;;;;;5015993;28;20443;-87
2020/12/07 07:30:34;;;;;;;51.13;33.47;;;4.60;99.90;;;;;;5034722;28;20383;-87
2020/12/07 07:33:01;;;;;;;42.40;30.97;;;4.60;99.90;;;;;;5034754;28;20433;-87
2020/12/07 07:38:53;;;;;;;50.57;35.10;;;4.50;99.90;;;;;;5038394;28;20448;-88
2020/12/07 07:41:22;;;;;;;51.70;33.77;;;4.40;99.90;;;;;;5038420;28;20437;-86
2020/12/07 07:43:51;;;;;;;50.77;33.67;;;4.40;99.90;;;;;;5038790;28;20530;-90
2020/12/07 07:46:20;;;;;;;43.03;31.00;;;4.40;99.90;;;;;;5039952;28;20445;-88
2020/12/07 07:48:56;;;;;;;42.60;30.97;;;4.40;99.90;;;;;;5040744;28;20448;-88
2020/12/07 07:52:05;;;;;;;45.40;31.20;;;4.50;99.90;;;;;;5041419;28;20451;-89
2020/12/07 07:54:52;;;;;;;46.63;30.47;;;4.60;99.90;;;;;;5040375;28;20793;-90
2020/12/07 08:18:06;;;;;;;45.97;29.63;;;4.70;99.90;;;;;;5059835;28;20506;-89
2020/12/07 08:20:39;;;;;;;43.60;27.90;;;4.60;99.90;;;;;;5044667;28;20453;-91
2020/12/07 08:23:09;;;;;;;36.77;26.70;;;4.50;99.90;;;;;;5041776;28;20422;-90
2020/12/07 08:25:46;;;;;;;46.43;28.90;;;4.50;99.90;;;;;;5046856;28;20456;-93
2020/12/07 08:28:22;;;;;;;40.00;27.50;;;4.50;99.90;;;;;;5056802;28;20475;-90
2020/12/07 08:31:06;;;;;;;41.70;28.07;;;4.50;99.90;;;;;;5057709;28;20441;-89
2020/12/07 08:33:34;;;;;;;42.07;25.20;;;4.50;99.90;;;;;;5057261;28;20476;-91
2020/12/07 08:36:02;;;;;;;38.07;26.83;;;4.50;99.90;;;;;;5054870;28;20923;-88
2020/12/07 08:38:32;;;;;;;36.50;25.20;;;4.50;99.90;;;;;;5057024;28;20496;-88
2020/12/07 08:41:07;;;;;;;38.50;23.30;;;4.50;99.90;;;;;;5045895;28;20441;-89
2020/12/07 08:43:37;;;;;;;36.47;24.33;;;4.50;99.90;;;;;;5050777;28;20833;-90
2020/12/07 08:46:03;;;;;;;31.07;21.17;;;4.50;99.90;;;;;;5039708;28;20456;-87
2020/12/07 08:48:30;;;;;;;29.13;20.47;;;4.50;99.90;;;;;;5050464;28;20521;-85
2020/12/07 08:50:57;;;;;;;36.30;22.40;;;4.50;99.90;;;;;;5063771;28;20560;-88
2020/12/07 08:53:23;;;;;;;28.83;19.90;;;4.50;99.90;;;;;;5056758;28;20450;-87
2020/12/07 08:55:51;;;;;;;31.23;19.60;;;4.50;99.90;;;;;;5056355;28;20504;-89
2020/12/07 08:58:18;;;;;;;29.30;19.50;;;4.50;99.90;;;;;;5059011;28;20453;-88
2020/12/07 09:00:44;;;;;;;30.00;20.33;;;4.50;99.90;;;;;;5041854;28;20975;-88
2020/12/07 09:03:11;;;;;;;31.20;19.23;;;4.50;99.90;;;;;;5053933;28;20517;-88
2020/12/07 09:05:39;;;;;;;33.60;20.10;;;4.50;99.90;;;;;;5059053;28;20441;-92
2020/12/07 09:08:12;;;;;;;28.90;19.33;;;4.60;99.90;;;;;;5058687;28;20506;-88
2020/12/07 09:10:41;;;;;;;25.60;18.67;;;4.60;99.90;;;;;;5060006;28;20490;-87
2020/12/07 09:13:12;;;;;;;31.47;20.20;;;4.60;99.90;;;;;;5059029;28;20460;-87
2020/12/07 09:15:38;;;;;;;29.33;20.10;;;4.60;99.90;;;;;;5057412;28;20964;-91
2020/12/07 09:18:05;;;;;;;29.00;18.40;;;4.70;99.90;;;;;;5041114;28;20454;-87
2020/12/07 09:20:31;;;;;;;32.90;18.97;;;4.70;99.90;;;;;;5048802;28;20441;-89
2020/12/07 09:22:58;;;;;;;25.47;18.00;;;4.60;99.90;;;;;;5065284;28;20586;-89
2020/12/07 09:25:24;;;;;;;27.03;18.10;;;4.60;99.90;;;;;;5064599;28;20513;-88
2020/12/07 09:27:51;;;;;;;27.90;20.57;;;4.60;99.90;;;;;;5059936;28;20539;-87
2020/12/07 09:30:18;;;;;;;25.93;19.20;;;4.60;99.90;;;;;;5058636;28;20514;-88
2020/12/07 09:32:45;;;;;;;29.60;19.13;;;4.60;99.90;;;;;;5059377;28;20432;-87
2020/12/07 09:35:13;;;;;;;24.00;16.20;;;4.60;99.90;;;;;;5051760;28;20493;-90
2020/12/07 09:37:40;;;;;;;26.10;17.00;;;4.60;99.90;;;;;;5056538;28;20453;-93
2020/12/07 09:40:07;;;;;;;24.07;15.20;;;4.60;99.90;;;;;;5059544;28;20450;-90
2020/12/07 09:42:34;;;;;;;26.67;16.63;;;4.60;99.90;;;;;;5062408;28;20446;-89
2020/12/07 09:45:01;;;;;;;25.03;16.00;;;4.60;99.90;;;;;;5059897;28;20452;-89
2020/12/07 09:47:31;;;;;;;24.87;16.40;;;4.60;99.90;;;;;;5051336;28;20442;-88
2020/12/07 09:49:57;;;;;;;22.30;15.43;;;4.60;99.90;;;;;;5042881;28;20437;-90
2020/12/07 09:52:24;;;;;;;21.40;16.17;;;4.60;99.90;;;;;;5036256;28;20447;-88
2020/12/07 09:54:50;;;;;;;24.67;15.40;;;4.60;99.90;;;;;;5037239;28;20477;-88
2020/12/07 09:57:17;;;;;;;22.90;14.57;;;4.60;99.90;;;;;;5037078;28;20447;-88
2020/12/07 09:59:46;;;;;;;21.37;14.63;;;4.40;99.90;;;;;;5036151;28;20454;-87
2020/12/07 10:02:13;;;;;;;19.57;13.47;;;4.40;99.90;;;;;;5037000;28;20453;-87
2020/12/07 10:04:43;;;;;;;23.57;15.60;;;4.40;99.90;;;;;;5047297;28;20503;-88
2020/12/07 10:07:11;;;;;;;22.90;15.63;;;4.40;99.90;;;;;;5040371;28;20526;-87
2020/12/07 10:09:39;;;;;;;23.83;16.03;;;4.40;99.90;;;;;;5044077;28;20476;-88
2020/12/07 10:12:06;;;;;;;25.63;16.20;;;4.30;99.90;;;;;;5056742;28;20460;-87
2020/12/07 10:14:33;;;;;;;21.53;16.10;;;4.30;99.90;;;;;;5046947;28;21186;-87
2020/12/07 10:16:59;;;;;;;21.40;14.47;;;4.30;99.90;;;;;;5049220;28;20533;-88
2020/12/07 10:19:26;;;;;;;23.00;14.87;;;4.40;99.90;;;;;;5054959;28;21032;-89
2020/12/07 10:21:54;;;;;;;27.23;16.70;;;4.40;99.90;;;;;;5057612;28;20436;-89
2020/12/07 10:24:21;;;;;;;26.17;18.20;;;4.40;99.90;;;;;;5061298;28;20460;-88
2020/12/07 10:27:30;;;;;;;23.60;15.10;;;4.40;99.90;;;;;;5059571;28;20482;-89
2020/12/07 10:29:58;;;;;;;23.03;15.43;;;4.40;99.90;;;;;;5054710;28;20454;-89
2020/12/07 10:32:24;;;;;;;25.93;15.70;;;4.40;99.90;;;;;;5055391;28;20489;-88
2020/12/07 10:34:51;;;;;;;24.27;16.23;;;4.30;99.90;;;;;;5053507;28;20537;-89
2020/12/07 10:37:19;;;;;;;20.17;14.93;;;4.20;99.90;;;;;;5055059;28;20416;-89
2020/12/07 10:39:45;;;;;;;23.20;16.87;;;4.20;99.90;;;;;;5056197;28;20475;-88
2020/12/07 10:42:12;;;;;;;25.77;17.83;;;4.20;99.90;;;;;;5051733;28;20446;-89
2020/12/07 10:44:38;;;;;;;26.47;18.53;;;4.20;99.90;;;;;;5054147;28;20445;-89
2020/12/07 10:47:05;;;;;;;26.77;17.90;;;4.20;99.90;;;;;;5053743;28;20448;-89
2020/12/07 10:49:31;;;;;;;23.97;16.60;;;4.30;99.90;;;;;;5036169;28;20448;-88
2020/12/07 10:51:59;;;;;;;27.83;20.83;;;4.30;99.90;;;;;;5039729;28;20445;-87
2020/12/07 10:54:26;;;;;;;27.80;19.77;;;4.20;99.90;;;;;;5058236;28;20477;-91
2020/12/07 10:56:53;;;;;;;21.53;15.53;;;4.10;99.90;;;;;;5054841;28;20989;-88
2020/12/07 10:59:19;;;;;;;21.00;16.40;;;4.30;99.90;;;;;;5050388;28;20531;-87
2020/12/07 11:01:46;;;;;;;26.30;16.80;;;4.30;99.90;;;;;;5055219;28;20518;-89
2020/12/07 11:04:12;;;;;;;30.37;19.53;;;4.30;99.90;;;;;;5055355;28;20453;-90
2020/12/07 11:06:47;;;;;;;25.40;17.63;;;4.30;99.90;;;;;;5055582;28;20493;-89
2020/12/07 11:16:46;;;;;;;29.73;18.47;;;4.50;99.90;;;;;;5017775;28;20520;-90
2020/12/07 11:19:13;;;;;;;24.70;17.47;;;4.50;99.90;;;;;;5046458;28;20504;-90
2020/12/07 11:21:39;;;;;;;24.47;17.53;;;4.60;99.90;;;;;;5039565;28;20412;-91
2020/12/07 11:24:07;;;;;;;26.93;18.20;;;4.70;99.90;;;;;;5039537;28;20503;-91
2020/12/07 11:27:23;;;;;;;27.60;18.63;;;4.80;99.90;;;;;;5051276;28;20785;-91
2020/12/07 11:29:50;;;;;;;26.47;18.53;;;4.90;99.90;;;;;;5039947;28;20471;-90
2020/12/07 11:32:17;;;;;;;29.33;20.07;;;4.80;99.90;;;;;;5038489;28;20925;-92
2020/12/07 11:38:38;;;;;;;31.87;20.70;;;4.80;99.90;;;;;;5038068;28;20535;-89
2020/12/07 11:41:27;;;;;;;24.67;14.80;;;4.80;99.90;;;;;;5039249;28;20912;-91
2020/12/07 11:44:06;;;;;;;23.67;14.93;;;4.80;99.90;;;;;;5038424;28;20540;-90
2020/12/07 11:50:08;;;;;;;20.73;14.00;;;4.80;99.90;;;;;;5059292;28;20421;-87
2020/12/07 11:52:35;;;;;;;19.10;13.60;;;4.80;99.90;;;;;;5059825;28;20433;-90
2020/12/07 11:55:20;;;;;;;18.83;13.80;;;4.70;99.90;;;;;;5059788;28;20507;-91
2020/12/07 11:58:07;;;;;;;19.37;13.27;;;4.80;99.90;;;;;;5036155;28;20520;-90
2020/12/07 12:00:33;;;;;;;18.80;12.83;;;4.90;99.90;;;;;;5038481;28;20467;-91
2020/12/07 12:03:00;;;;;;;18.57;12.90;;;4.90;99.90;;;;;;5058787;28;20467;-90
2020/12/07 12:24:19;;;;;;;17.07;10.83;;;5.10;99.90;;;;;;5087568;28;20481;-89
2020/12/07 12:26:48;;;;;;;14.80;9.77;;;5.20;99.90;;;;;;5098909;28;20462;-88
2020/12/07 12:29:14;;;;;;;15.40;9.93;;;5.20;99.90;;;;;;5098396;28;20456;-89
2020/12/07 12:34:31;;;;;;;15.13;9.80;;;5.20;99.90;;;;;;5039457;28;20496;-89
2020/12/07 12:43:47;;;;;;;11.30;6.83;;;5.20;99.90;;;;;;5098988;28;20432;-89
2020/12/07 12:46:14;;;;;;;11.73;7.30;;;5.30;99.90;;;;;;5098690;28;20502;-89
2020/12/07 12:48:41;;;;;;;9.83;7.10;;;5.20;99.90;;;;;;5097828;28;20468;-88
2020/12/07 12:51:08;;;;;;;11.97;6.60;;;5.30;99.90;;;;;;5097747;28;20452;-89
2020/12/07 12:53:35;;;;;;;11.07;7.50;;;5.30;99.90;;;;;;5097582;28;20438;-88
2020/12/07 13:02:18;;;;;;;10.50;7.43;;;5.20;99.90;;;;;;5038574;28;20954;-87
2020/12/07 13:05:28;;;;;;;8.97;5.87;;;5.20;99.90;;;;;;5036503;28;20567;-89
2020/12/07 13:07:55;;;;;;;9.80;6.90;;;5.30;99.90;;;;;;5031780;28;20435;-89
2020/12/07 13:10:21;;;;;;;12.87;7.10;;;5.20;99.90;;;;;;5069935;28;20446;-89
2020/12/07 13:12:48;;;;;;;10.93;7.20;;;5.20;99.90;;;;;;5096763;28;20450;-88
2020/12/07 13:15:15;;;;;;;10.90;7.70;;;5.20;99.90;;;;;;5096668;28;20481;-87
2020/12/07 13:17:50;;;;;;;14.77;8.93;;;5.20;99.90;;;;;;5097239;28;20529;-89
2020/12/07 13:20:27;;;;;;;14.27;9.70;;;5.10;99.90;;;;;;5093850;28;20906;-88
2020/12/07 13:23:15;;;;;;;22.30;14.10;;;5.00;99.90;;;;;;5062207;28;20410;-89
2020/12/07 13:25:48;;;;;;;20.27;11.13;;;5.10;99.90;;;;;;5095565;28;20803;-89
2020/12/07 13:28:17;;;;;;;21.30;13.90;;;5.10;99.90;;;;;;5096183;28;20518;-88
2020/12/07 13:30:46;;;;;;;19.20;13.43;;;5.10;99.90;;;;;;5096600;28;20498;-95
2020/12/07 13:33:14;;;;;;;19.80;11.97;;;5.00;99.90;;;;;;5095402;28;20976;-87
2020/12/07 13:35:44;;;;;;;20.07;13.50;;;5.00;99.90;;;;;;5096820;28;20540;-87
2020/12/07 13:38:10;;;;;;;21.00;13.00;;;5.10;99.90;;;;;;5094201;28;20423;-87
2020/12/07 13:40:40;;;;;;;20.43;14.00;;;5.10;99.90;;;;;;5095153;28;20904;-87
2020/12/07 13:43:07;;;;;;;18.13;12.67;;;5.00;99.90;;;;;;5093412;28;20435;-87
2020/12/07 13:45:34;;;;;;;17.70;11.90;;;5.00;99.90;;;;;;5096896;28;20435;-87
2020/12/07 13:48:01;;;;;;;20.83;12.57;;;5.00;99.90;;;;;;5096617;28;20510;-86
2020/12/07 13:50:31;;;;;;;19.57;12.63;;;4.90;99.90;;;;;;5096545;28;20440;-86
2020/12/07 13:52:57;;;;;;;21.13;13.10;;;4.90;99.90;;;;;;5094790;28;20443;-87
2020/12/07 13:55:25;;;;;;;18.43;12.40;;;5.00;99.90;;;;;;5093857;28;20495;-86
2020/12/07 13:57:51;;;;;;;15.90;10.60;;;5.00;99.90;;;;;;5093718;28;20536;-87
2020/12/07 14:00:18;;;;;;;16.03;10.30;;;5.00;99.90;;;;;;5097420;28;20519;-88
2020/12/07 14:02:47;;;;;;;16.73;11.37;;;5.10;99.90;;;;;;5095369;28;20492;-91
2020/12/07 14:05:14;;;;;;;15.37;11.70;;;5.10;99.90;;;;;;5091125;28;20791;-87
2020/12/07 14:07:41;;;;;;;14.53;9.40;;;5.10;99.90;;;;;;5075749;28;20496;-86
2020/12/07 14:10:08;;;;;;;15.50;10.90;;;5.10;99.90;;;;;;5074167;28;20435;-88
2020/12/07 14:12:35;;;;;;;15.17;10.60;;;5.10;99.90;;;;;;5090870;28;20461;-87
2020/12/07 14:15:02;;;;;;;16.30;11.23;;;5.00;99.90;;;;;;5083236;28;20475;-88
2020/12/07 14:17:34;;;;;;;15.50;10.40;;;5.10;99.90;;;;;;5079732;28;20476;-87
2020/12/07 14:20:07;;;;;;;16.13;11.23;;;5.00;99.90;;;;;;5090765;28;20454;-87
2020/12/07 14:22:43;;;;;;;17.57;11.63;;;5.00;99.90;;;;;;5093864;28;20922;-87
2020/12/07 14:41:46;;;;;;;14.80;9.37;;;5.20;99.90;;;;;;5034305;28;20788;-88
2020/12/07 14:44:13;;;;;;;14.33;9.27;;;5.30;99.90;;;;;;5084482;28;20441;-87
2020/12/07 14:46:41;;;;;;;10.80;7.83;;;5.30;99.90;;;;;;5092176;28;20457;-87
2020/12/07 14:49:07;;;;;;;14.27;10.50;;;5.30;99.90;;;;;;5094704;28;20479;-87
2020/12/07 14:51:38;;;;;;;13.13;8.90;;;5.20;99.90;;;;;;5094237;28;20448;-88
2020/12/07 14:54:08;;;;;;;13.00;8.17;;;5.20;99.90;;;;;;5095054;28;20459;-87